sensor_id;sensor_type;location;lat;lon;timestamp;P1;durP1;ratioP1;P2;durP2;ratioP2
44722;SDS011;30451;48.638;10.624;2023-04-24T00:00:14;4.95;;;3.15;;
44722;SDS011;30451;48.638;10.624;2023-04-24T00:02:44;6.32;;;3.08;;
44722;SDS011;30451;48.638;10.624;2023-04-24T00:05:12;5.60;;;3.10;;
44722;SDS011;30451;48.638;10.624;2023-04-24T00:07:38;5.30;;;2.90;;
44722;SDS011;30451;48.638;10.624;2023-04-24T00:10:05;5.13;;;3.17;;
44722;SDS011;30451;48.638;10.624;2023-04-24T00:12:31;5.82;;;2.95;;
44722;SDS011;30451;48.638;10.624;2023-04-24T00:14:57;5.55;;;3.10;;
44722;SDS011;30451;48.638;10.624;2023-04-24T00:17:23;5.32;;;2.78;;
44722;SDS011;30451;48.638;10.624;2023-04-24T00:19:48;4.80;;;2.95;;
44722;SDS011;30451;48.638;10.624;2023-04-24T00:22:16;5.13;;;2.95;;
44722;SDS011;30451;48.638;10.624;2023-04-24T00:24:42;5.00;;;3.08;;
44722;SDS011;30451;48.638;10.624;2023-04-24T00:27:08;4.90;;;2.90;;
44722;SDS011;30451;48.638;10.624;2023-04-24T00:29:34;5.25;;;3.08;;
44722;SDS011;30451;48.638;10.624;2023-04-24T00:31:59;5.13;;;3.17;;
44722;SDS011;30451;48.638;10.624;2023-04-24T00:34:25;4.45;;;2.60;;
44722;SDS011;30451;48.638;10.624;2023-04-24T00:36:51;5.40;;;3.08;;
44722;SDS011;30451;48.638;10.624;2023-04-24T00:39:20;4.95;;;3.17;;
44722;SDS011;30451;48.638;10.624;2023-04-24T00:41:46;5.82;;;3.05;;
44722;SDS011;30451;48.638;10.624;2023-04-24T00:44:12;5.13;;;3.05;;
44722;SDS011;30451;48.638;10.624;2023-04-24T00:46:38;4.38;;;2.67;;
44722;SDS011;30451;48.638;10.624;2023-04-24T00:49:04;4.35;;;2.65;;
44722;SDS011;30451;48.638;10.624;2023-04-24T00:51:31;4.40;;;2.45;;
44722;SDS011;30451;48.638;10.624;2023-04-24T00:53:58;4.70;;;2.90;;
44722;SDS011;30451;48.638;10.624;2023-04-24T00:56:24;5.05;;;2.70;;
44722;SDS011;30451;48.638;10.624;2023-04-24T00:58:50;5.28;;;2.70;;
44722;SDS011;30451;48.638;10.624;2023-04-24T01:01:15;5.22;;;2.88;;
44722;SDS011;30451;48.638;10.624;2023-04-24T01:03:41;4.72;;;2.92;;
44722;SDS011;30451;48.638;10.624;2023-04-24T01:06:07;6.00;;;2.80;;
44722;SDS011;30451;48.638;10.624;2023-04-24T01:08:35;4.95;;;2.83;;
44722;SDS011;30451;48.638;10.624;2023-04-24T01:11:01;6.00;;;2.70;;
44722;SDS011;30451;48.638;10.624;2023-04-24T01:13:28;4.97;;;2.67;;
44722;SDS011;30451;48.638;10.624;2023-04-24T01:15:54;4.60;;;2.70;;
44722;SDS011;30451;48.638;10.624;2023-04-24T01:18:20;3.95;;;2.53;;
44722;SDS011;30451;48.638;10.624;2023-04-24T01:20:46;3.92;;;2.47;;
44722;SDS011;30451;48.638;10.624;2023-04-24T01:23:15;5.15;;;2.95;;
44722;SDS011;30451;48.638;10.624;2023-04-24T01:25:42;4.82;;;2.80;;
44722;SDS011;30451;48.638;10.624;2023-04-24T01:28:08;4.75;;;2.60;;
44722;SDS011;30451;48.638;10.624;2023-04-24T01:30:33;4.88;;;2.60;;
44722;SDS011;30451;48.638;10.624;2023-04-24T01:32:59;4.30;;;2.60;;
44722;SDS011;30451;48.638;10.624;2023-04-24T01:35:26;4.25;;;2.60;;
44722;SDS011;30451;48.638;10.624;2023-04-24T01:37:52;4.40;;;2.60;;
44722;SDS011;30451;48.638;10.624;2023-04-24T01:40:17;4.78;;;2.50;;
44722;SDS011;30451;48.638;10.624;2023-04-24T01:42:43;4.13;;;2.40;;
44722;SDS011;30451;48.638;10.624;2023-04-24T01:45:10;4.45;;;2.58;;
44722;SDS011;30451;48.638;10.624;2023-04-24T01:47:37;4.00;;;2.63;;
44722;SDS011;30451;48.638;10.624;2023-04-24T01:50:05;4.43;;;2.80;;
44722;SDS011;30451;48.638;10.624;2023-04-24T01:52:31;5.25;;;2.83;;
44722;SDS011;30451;48.638;10.624;2023-04-24T01:55:01;5.63;;;2.58;;
44722;SDS011;30451;48.638;10.624;2023-04-24T01:57:28;4.78;;;2.33;;
44722;SDS011;30451;48.638;10.624;2023-04-24T01:59:55;4.03;;;2.58;;
44722;SDS011;30451;48.638;10.624;2023-04-24T02:02:21;3.72;;;2.22;;
44722;SDS011;30451;48.638;10.624;2023-04-24T02:04:49;4.07;;;2.40;;
44722;SDS011;30451;48.638;10.624;2023-04-24T02:07:15;4.78;;;2.40;;
44722;SDS011;30451;48.638;10.624;2023-04-24T02:09:40;4.53;;;2.50;;
44722;SDS011;30451;48.638;10.624;2023-04-24T02:12:06;4.55;;;2.70;;
44722;SDS011;30451;48.638;10.624;2023-04-24T02:14:32;4.20;;;2.50;;
44722;SDS011;30451;48.638;10.624;2023-04-24T02:16:57;4.05;;;2.40;;
44722;SDS011;30451;48.638;10.624;2023-04-24T02:19:23;4.20;;;2.20;;
44722;SDS011;30451;48.638;10.624;2023-04-24T02:21:49;3.63;;;2.30;;
44722;SDS011;30451;48.638;10.624;2023-04-24T02:24:14;3.67;;;2.22;;
44722;SDS011;30451;48.638;10.624;2023-04-24T02:26:40;3.40;;;2.08;;
44722;SDS011;30451;48.638;10.624;2023-04-24T02:29:06;3.35;;;1.95;;
44722;SDS011;30451;48.638;10.624;2023-04-24T02:31:32;3.97;;;2.30;;
44722;SDS011;30451;48.638;10.624;2023-04-24T02:33:57;4.03;;;2.25;;
44722;SDS011;30451;48.638;10.624;2023-04-24T02:36:23;4.13;;;2.40;;
44722;SDS011;30451;48.638;10.624;2023-04-24T02:38:48;3.55;;;2.20;;
44722;SDS011;30451;48.638;10.624;2023-04-24T02:41:14;3.92;;;2.22;;
44722;SDS011;30451;48.638;10.624;2023-04-24T02:43:39;3.45;;;2.28;;
44722;SDS011;30451;48.638;10.624;2023-04-24T02:46:05;3.90;;;2.40;;
44722;SDS011;30451;48.638;10.624;2023-04-24T02:48:31;3.70;;;2.15;;
44722;SDS011;30451;48.638;10.624;2023-04-24T02:50:56;3.80;;;2.22;;
44722;SDS011;30451;48.638;10.624;2023-04-24T02:53:22;3.78;;;2.03;;
44722;SDS011;30451;48.638;10.624;2023-04-24T02:55:48;3.95;;;2.28;;
44722;SDS011;30451;48.638;10.624;2023-04-24T02:58:14;4.45;;;2.40;;
44722;SDS011;30451;48.638;10.624;2023-04-24T03:00:40;3.33;;;2.10;;
44722;SDS011;30451;48.638;10.624;2023-04-24T03:03:06;3.50;;;2.10;;
44722;SDS011;30451;48.638;10.624;2023-04-24T03:05:32;3.60;;;2.20;;
44722;SDS011;30451;48.638;10.624;2023-04-24T03:07:57;3.75;;;1.98;;
44722;SDS011;30451;48.638;10.624;2023-04-24T03:10:23;3.95;;;2.20;;
44722;SDS011;30451;48.638;10.624;2023-04-24T03:12:49;3.05;;;2.00;;
44722;SDS011;30451;48.638;10.624;2023-04-24T03:15:15;4.03;;;2.20;;
44722;SDS011;30451;48.638;10.624;2023-04-24T03:17:40;4.88;;;2.38;;
44722;SDS011;30451;48.638;10.624;2023-04-24T03:20:06;3.28;;;2.00;;
44722;SDS011;30451;48.638;10.624;2023-04-24T03:22:35;3.45;;;2.20;;
44722;SDS011;30451;48.638;10.624;2023-04-24T03:25:01;3.47;;;1.75;;
44722;SDS011;30451;48.638;10.624;2023-04-24T03:27:27;3.40;;;2.00;;
44722;SDS011;30451;48.638;10.624;2023-04-24T03:29:52;3.38;;;1.80;;
44722;SDS011;30451;48.638;10.624;2023-04-24T03:32:20;3.50;;;1.90;;
44722;SDS011;30451;48.638;10.624;2023-04-24T03:34:47;3.67;;;2.13;;
44722;SDS011;30451;48.638;10.624;2023-04-24T03:37:13;3.17;;;1.92;;
44722;SDS011;30451;48.638;10.624;2023-04-24T03:39:38;3.65;;;2.00;;
44722;SDS011;30451;48.638;10.624;2023-04-24T03:42:04;3.85;;;2.10;;
44722;SDS011;30451;48.638;10.624;2023-04-24T03:44:29;4.22;;;2.35;;
44722;SDS011;30451;48.638;10.624;2023-04-24T03:46:55;3.40;;;1.98;;
44722;SDS011;30451;48.638;10.624;2023-04-24T03:49:22;3.75;;;2.00;;
44722;SDS011;30451;48.638;10.624;2023-04-24T03:51:48;3.42;;;2.08;;
44722;SDS011;30451;48.638;10.624;2023-04-24T03:54:13;3.47;;;1.90;;
44722;SDS011;30451;48.638;10.624;2023-04-24T03:56:39;3.10;;;1.88;;
44722;SDS011;30451;48.638;10.624;2023-04-24T03:59:05;3.70;;;2.10;;
44722;SDS011;30451;48.638;10.624;2023-04-24T04:01:30;2.78;;;1.65;;
44722;SDS011;30451;48.638;10.624;2023-04-24T04:03:56;4.38;;;2.08;;
44722;SDS011;30451;48.638;10.624;2023-04-24T04:06:22;3.30;;;1.90;;
44722;SDS011;30451;48.638;10.624;2023-04-24T04:08:47;3.20;;;1.85;;
44722;SDS011;30451;48.638;10.624;2023-04-24T04:11:13;3.92;;;2.00;;
44722;SDS011;30451;48.638;10.624;2023-04-24T04:13:39;3.30;;;1.90;;
44722;SDS011;30451;48.638;10.624;2023-04-24T04:16:04;3.60;;;2.00;;
44722;SDS011;30451;48.638;10.624;2023-04-24T04:18:30;2.90;;;1.77;;
44722;SDS011;30451;48.638;10.624;2023-04-24T04:20:56;3.10;;;1.88;;
44722;SDS011;30451;48.638;10.624;2023-04-24T04:23:22;2.78;;;1.60;;
44722;SDS011;30451;48.638;10.624;2023-04-24T04:25:48;3.10;;;1.90;;
44722;SDS011;30451;48.638;10.624;2023-04-24T04:28:14;2.97;;;1.83;;
44722;SDS011;30451;48.638;10.624;2023-04-24T04:30:41;3.10;;;1.90;;
44722;SDS011;30451;48.638;10.624;2023-04-24T04:33:07;3.47;;;1.80;;
44722;SDS011;30451;48.638;10.624;2023-04-24T04:35:33;3.30;;;1.90;;
44722;SDS011;30451;48.638;10.624;2023-04-24T04:37:59;2.83;;;1.70;;
44722;SDS011;30451;48.638;10.624;2023-04-24T04:40:25;3.70;;;1.70;;
44722;SDS011;30451;48.638;10.624;2023-04-24T04:42:52;3.15;;;1.90;;
44722;SDS011;30451;48.638;10.624;2023-04-24T04:45:18;2.95;;;1.65;;
44722;SDS011;30451;48.638;10.624;2023-04-24T04:47:45;3.03;;;1.60;;
44722;SDS011;30451;48.638;10.624;2023-04-24T04:50:11;2.22;;;1.50;;
44722;SDS011;30451;48.638;10.624;2023-04-24T04:52:36;3.28;;;1.63;;
44722;SDS011;30451;48.638;10.624;2023-04-24T04:55:02;3.45;;;1.70;;
44722;SDS011;30451;48.638;10.624;2023-04-24T04:57:28;2.97;;;1.60;;
44722;SDS011;30451;48.638;10.624;2023-04-24T04:59:53;3.10;;;1.60;;
44722;SDS011;30451;48.638;10.624;2023-04-24T05:02:19;2.92;;;1.80;;
44722;SDS011;30451;48.638;10.624;2023-04-24T05:04:45;2.55;;;1.60;;
44722;SDS011;30451;48.638;10.624;2023-04-24T05:07:11;2.33;;;1.42;;
44722;SDS011;30451;48.638;10.624;2023-04-24T05:09:36;2.42;;;1.60;;
44722;SDS011;30451;48.638;10.624;2023-04-24T05:12:02;2.05;;;1.45;;
44722;SDS011;30451;48.638;10.624;2023-04-24T05:14:28;2.63;;;1.30;;
44722;SDS011;30451;48.638;10.624;2023-04-24T05:16:54;2.90;;;1.65;;
44722;SDS011;30451;48.638;10.624;2023-04-24T05:19:20;2.90;;;1.60;;
44722;SDS011;30451;48.638;10.624;2023-04-24T05:21:45;3.22;;;1.50;;
44722;SDS011;30451;48.638;10.624;2023-04-24T05:24:11;2.72;;;1.50;;
44722;SDS011;30451;48.638;10.624;2023-04-24T05:26:36;2.90;;;1.45;;
44722;SDS011;30451;48.638;10.624;2023-04-24T05:29:02;2.80;;;1.50;;
44722;SDS011;30451;48.638;10.624;2023-04-24T05:31:28;3.35;;;1.90;;
44722;SDS011;30451;48.638;10.624;2023-04-24T05:33:54;2.60;;;1.48;;
44722;SDS011;30451;48.638;10.624;2023-04-24T05:36:20;2.80;;;1.50;;
44722;SDS011;30451;48.638;10.624;2023-04-24T05:38:45;2.50;;;1.40;;
44722;SDS011;30451;48.638;10.624;2023-04-24T05:41:11;3.38;;;1.60;;
44722;SDS011;30451;48.638;10.624;2023-04-24T05:43:36;3.22;;;1.70;;
44722;SDS011;30451;48.638;10.624;2023-04-24T05:46:02;2.97;;;1.70;;
44722;SDS011;30451;48.638;10.624;2023-04-24T05:48:28;3.97;;;1.50;;
44722;SDS011;30451;48.638;10.624;2023-04-24T05:50:53;3.50;;;1.60;;
44722;SDS011;30451;48.638;10.624;2023-04-24T05:53:19;2.65;;;1.50;;
44722;SDS011;30451;48.638;10.624;2023-04-24T05:55:44;2.67;;;1.45;;
44722;SDS011;30451;48.638;10.624;2023-04-24T05:58:10;3.50;;;1.75;;
44722;SDS011;30451;48.638;10.624;2023-04-24T06:00:37;4.90;;;1.75;;
44722;SDS011;30451;48.638;10.624;2023-04-24T06:03:04;3.53;;;1.52;;
44722;SDS011;30451;48.638;10.624;2023-04-24T06:05:30;3.13;;;1.67;;
44722;SDS011;30451;48.638;10.624;2023-04-24T06:07:56;3.75;;;1.35;;
44722;SDS011;30451;48.638;10.624;2023-04-24T06:10:21;3.40;;;1.40;;
44722;SDS011;30451;48.638;10.624;2023-04-24T06:12:47;3.28;;;1.70;;
44722;SDS011;30451;48.638;10.624;2023-04-24T06:15:13;4.22;;;1.95;;
44722;SDS011;30451;48.638;10.624;2023-04-24T06:17:38;3.60;;;1.83;;
44722;SDS011;30451;48.638;10.624;2023-04-24T06:20:04;2.92;;;1.60;;
44722;SDS011;30451;48.638;10.624;2023-04-24T06:22:31;3.63;;;1.80;;
44722;SDS011;30451;48.638;10.624;2023-04-24T06:24:57;4.63;;;1.98;;
44722;SDS011;30451;48.638;10.624;2023-04-24T06:27:22;3.50;;;1.60;;
44722;SDS011;30451;48.638;10.624;2023-04-24T06:29:48;4.22;;;1.90;;
44722;SDS011;30451;48.638;10.624;2023-04-24T06:32:20;3.33;;;1.70;;
44722;SDS011;30451;48.638;10.624;2023-04-24T06:34:47;4.10;;;1.80;;
44722;SDS011;30451;48.638;10.624;2023-04-24T06:37:12;4.13;;;1.50;;
44722;SDS011;30451;48.638;10.624;2023-04-24T06:39:39;3.70;;;1.80;;
44722;SDS011;30451;48.638;10.624;2023-04-24T06:42:04;3.25;;;1.58;;
44722;SDS011;30451;48.638;10.624;2023-04-24T06:44:30;3.13;;;1.65;;
44722;SDS011;30451;48.638;10.624;2023-04-24T06:46:55;3.65;;;1.85;;
44722;SDS011;30451;48.638;10.624;2023-04-24T06:49:21;3.65;;;1.70;;
44722;SDS011;30451;48.638;10.624;2023-04-24T06:51:47;3.88;;;1.60;;
44722;SDS011;30451;48.638;10.624;2023-04-24T06:54:12;3.42;;;1.60;;
44722;SDS011;30451;48.638;10.624;2023-04-24T06:56:38;3.88;;;1.80;;
44722;SDS011;30451;48.638;10.624;2023-04-24T06:59:03;2.97;;;1.50;;
44722;SDS011;30451;48.638;10.624;2023-04-24T07:01:29;3.70;;;1.50;;
44722;SDS011;30451;48.638;10.624;2023-04-24T07:03:55;3.92;;;1.90;;
44722;SDS011;30451;48.638;10.624;2023-04-24T07:06:20;5.22;;;1.75;;
44722;SDS011;30451;48.638;10.624;2023-04-24T07:08:47;3.38;;;1.63;;
44722;SDS011;30451;48.638;10.624;2023-04-24T07:11:13;4.28;;;1.90;;
44722;SDS011;30451;48.638;10.624;2023-04-24T07:13:39;2.80;;;1.48;;
44722;SDS011;30451;48.638;10.624;2023-04-24T07:16:06;3.65;;;1.70;;
44722;SDS011;30451;48.638;10.624;2023-04-24T07:18:33;4.30;;;1.80;;
44722;SDS011;30451;48.638;10.624;2023-04-24T07:20:59;4.30;;;1.75;;
44722;SDS011;30451;48.638;10.624;2023-04-24T07:23:24;4.82;;;1.90;;
44722;SDS011;30451;48.638;10.624;2023-04-24T07:25:50;3.38;;;1.90;;
44722;SDS011;30451;48.638;10.624;2023-04-24T07:28:16;3.97;;;1.70;;
44722;SDS011;30451;48.638;10.624;2023-04-24T07:30:42;3.22;;;1.60;;
44722;SDS011;30451;48.638;10.624;2023-04-24T07:33:08;3.25;;;1.60;;
44722;SDS011;30451;48.638;10.624;2023-04-24T07:35:36;3.97;;;1.90;;
44722;SDS011;30451;48.638;10.624;2023-04-24T07:38:02;3.78;;;1.65;;
44722;SDS011;30451;48.638;10.624;2023-04-24T07:40:27;3.53;;;1.50;;
44722;SDS011;30451;48.638;10.624;2023-04-24T07:42:53;2.63;;;1.40;;
44722;SDS011;30451;48.638;10.624;2023-04-24T07:45:18;3.00;;;1.50;;
44722;SDS011;30451;48.638;10.624;2023-04-24T07:47:44;3.97;;;1.70;;
44722;SDS011;30451;48.638;10.624;2023-04-24T07:50:10;3.10;;;1.40;;
44722;SDS011;30451;48.638;10.624;2023-04-24T07:52:38;2.80;;;1.50;;
44722;SDS011;30451;48.638;10.624;2023-04-24T07:55:03;3.70;;;1.80;;
44722;SDS011;30451;48.638;10.624;2023-04-24T07:57:29;3.67;;;1.70;;
44722;SDS011;30451;48.638;10.624;2023-04-24T07:59:55;3.78;;;1.60;;
44722;SDS011;30451;48.638;10.624;2023-04-24T08:02:21;4.43;;;1.80;;
44722;SDS011;30451;48.638;10.624;2023-04-24T08:04:51;2.83;;;1.73;;
44722;SDS011;30451;48.638;10.624;2023-04-24T08:07:20;3.50;;;1.60;;
44722;SDS011;30451;48.638;10.624;2023-04-24T08:09:46;3.20;;;1.65;;
44722;SDS011;30451;48.638;10.624;2023-04-24T08:12:14;2.88;;;1.40;;
44722;SDS011;30451;48.638;10.624;2023-04-24T08:14:40;4.18;;;1.83;;
44722;SDS011;30451;48.638;10.624;2023-04-24T08:17:05;3.40;;;1.73;;
44722;SDS011;30451;48.638;10.624;2023-04-24T08:19:31;3.22;;;1.83;;
44722;SDS011;30451;48.638;10.624;2023-04-24T08:21:57;3.25;;;1.73;;
44722;SDS011;30451;48.638;10.624;2023-04-24T08:24:22;3.15;;;1.60;;
44722;SDS011;30451;48.638;10.624;2023-04-24T08:26:48;2.85;;;1.40;;
44722;SDS011;30451;48.638;10.624;2023-04-24T08:29:18;3.80;;;1.70;;
44722;SDS011;30451;48.638;10.624;2023-04-24T08:31:44;4.25;;;1.83;;
44722;SDS011;30451;48.638;10.624;2023-04-24T08:34:10;2.88;;;1.58;;
44722;SDS011;30451;48.638;10.624;2023-04-24T08:36:35;2.78;;;1.52;;
44722;SDS011;30451;48.638;10.624;2023-04-24T08:39:02;3.85;;;1.67;;
44722;SDS011;30451;48.638;10.624;2023-04-24T08:41:27;3.33;;;1.60;;
44722;SDS011;30451;48.638;10.624;2023-04-24T08:43:53;4.38;;;1.70;;
44722;SDS011;30451;48.638;10.624;2023-04-24T08:46:20;3.10;;;1.65;;
44722;SDS011;30451;48.638;10.624;2023-04-24T08:48:47;2.75;;;1.58;;
44722;SDS011;30451;48.638;10.624;2023-04-24T08:51:14;2.40;;;1.33;;
44722;SDS011;30451;48.638;10.624;2023-04-24T08:53:40;3.30;;;1.70;;
44722;SDS011;30451;48.638;10.624;2023-04-24T08:56:05;3.90;;;2.05;;
44722;SDS011;30451;48.638;10.624;2023-04-24T08:58:32;3.30;;;1.80;;
44722;SDS011;30451;48.638;10.624;2023-04-24T09:00:58;2.63;;;1.42;;
44722;SDS011;30451;48.638;10.624;2023-04-24T09:03:24;2.95;;;1.60;;
44722;SDS011;30451;48.638;10.624;2023-04-24T09:05:52;3.05;;;1.48;;
44722;SDS011;30451;48.638;10.624;2023-04-24T09:08:20;3.40;;;1.50;;
44722;SDS011;30451;48.638;10.624;2023-04-24T09:10:48;4.00;;;1.67;;
44722;SDS011;30451;48.638;10.624;2023-04-24T09:13:14;3.78;;;1.60;;
44722;SDS011;30451;48.638;10.624;2023-04-24T09:15:40;2.72;;;1.50;;
44722;SDS011;30451;48.638;10.624;2023-04-24T09:18:06;2.70;;;1.55;;
44722;SDS011;30451;48.638;10.624;2023-04-24T09:20:32;2.95;;;1.50;;
44722;SDS011;30451;48.638;10.624;2023-04-24T09:22:58;3.17;;;1.60;;
44722;SDS011;30451;48.638;10.624;2023-04-24T09:25:34;3.45;;;1.60;;
44722;SDS011;30451;48.638;10.624;2023-04-24T09:28:03;3.38;;;1.85;;
44722;SDS011;30451;48.638;10.624;2023-04-24T09:30:30;3.05;;;1.50;;
44722;SDS011;30451;48.638;10.624;2023-04-24T09:33:12;2.97;;;1.40;;
44722;SDS011;30451;48.638;10.624;2023-04-24T09:35:42;3.20;;;1.50;;
44722;SDS011;30451;48.638;10.624;2023-04-24T09:38:13;3.13;;;1.60;;
44722;SDS011;30451;48.638;10.624;2023-04-24T09:40:39;3.17;;;1.50;;
44722;SDS011;30451;48.638;10.624;2023-04-24T09:43:05;2.40;;;1.40;;
44722;SDS011;30451;48.638;10.624;2023-04-24T09:45:36;3.17;;;1.60;;
44722;SDS011;30451;48.638;10.624;2023-04-24T09:48:04;2.70;;;1.60;;
44722;SDS011;30451;48.638;10.624;2023-04-24T09:50:31;3.30;;;1.40;;
44722;SDS011;30451;48.638;10.624;2023-04-24T09:53:00;3.08;;;1.70;;
44722;SDS011;30451;48.638;10.624;2023-04-24T09:57:55;2.80;;;1.60;;
44722;SDS011;30451;48.638;10.624;2023-04-24T10:00:26;3.28;;;1.52;;
44722;SDS011;30451;48.638;10.624;2023-04-24T10:02:56;2.78;;;1.50;;
44722;SDS011;30451;48.638;10.624;2023-04-24T10:05:24;3.20;;;1.65;;
44722;SDS011;30451;48.638;10.624;2023-04-24T10:08:03;3.10;;;1.40;;
44722;SDS011;30451;48.638;10.624;2023-04-24T10:10:30;2.75;;;1.55;;
44722;SDS011;30451;48.638;10.624;2023-04-24T10:12:56;2.65;;;1.25;;
44722;SDS011;30451;48.638;10.624;2023-04-24T10:15:22;2.53;;;1.40;;
44722;SDS011;30451;48.638;10.624;2023-04-24T10:17:48;2.15;;;1.30;;
44722;SDS011;30451;48.638;10.624;2023-04-24T10:20:24;2.67;;;1.38;;
44722;SDS011;30451;48.638;10.624;2023-04-24T10:22:52;2.47;;;1.40;;
44722;SDS011;30451;48.638;10.624;2023-04-24T10:25:19;3.13;;;1.67;;
44722;SDS011;30451;48.638;10.624;2023-04-24T10:27:46;2.47;;;1.40;;
44722;SDS011;30451;48.638;10.624;2023-04-24T10:30:13;2.75;;;1.45;;
44722;SDS011;30451;48.638;10.624;2023-04-24T10:32:39;2.90;;;1.33;;
44722;SDS011;30451;48.638;10.624;2023-04-24T10:35:08;2.67;;;1.40;;
44722;SDS011;30451;48.638;10.624;2023-04-24T10:37:36;2.38;;;1.20;;
44722;SDS011;30451;48.638;10.624;2023-04-24T10:40:05;2.22;;;1.17;;
44722;SDS011;30451;48.638;10.624;2023-04-24T10:42:33;2.50;;;1.42;;
44722;SDS011;30451;48.638;10.624;2023-04-24T10:44:59;2.33;;;1.30;;
44722;SDS011;30451;48.638;10.624;2023-04-24T10:47:29;2.05;;;1.10;;
44722;SDS011;30451;48.638;10.624;2023-04-24T10:50:07;2.17;;;1.27;;
44722;SDS011;30451;48.638;10.624;2023-04-24T10:52:47;2.15;;;1.30;;
44722;SDS011;30451;48.638;10.624;2023-04-24T10:55:15;2.13;;;1.20;;
44722;SDS011;30451;48.638;10.624;2023-04-24T10:58:02;1.95;;;1.20;;
44722;SDS011;30451;48.638;10.624;2023-04-24T11:00:29;2.05;;;1.15;;
44722;SDS011;30451;48.638;10.624;2023-04-24T11:02:54;2.22;;;1.10;;
44722;SDS011;30451;48.638;10.624;2023-04-24T11:05:21;2.40;;;1.25;;
44722;SDS011;30451;48.638;10.624;2023-04-24T11:10:44;2.47;;;1.20;;
44722;SDS011;30451;48.638;10.624;2023-04-24T11:13:10;2.17;;;1.30;;
44722;SDS011;30451;48.638;10.624;2023-04-24T11:15:41;3.75;;;1.20;;
44722;SDS011;30451;48.638;10.624;2023-04-24T11:18:12;2.55;;;1.30;;
44722;SDS011;30451;48.638;10.624;2023-04-24T11:20:41;2.58;;;1.33;;
44722;SDS011;30451;48.638;10.624;2023-04-24T11:23:08;2.35;;;1.35;;
44722;SDS011;30451;48.638;10.624;2023-04-24T11:25:34;3.17;;;1.10;;
44722;SDS011;30451;48.638;10.624;2023-04-24T11:28:04;3.08;;;1.40;;
44722;SDS011;30451;48.638;10.624;2023-04-24T11:30:31;2.15;;;1.30;;
44722;SDS011;30451;48.638;10.624;2023-04-24T11:35:29;2.65;;;1.30;;
44722;SDS011;30451;48.638;10.624;2023-04-24T11:38:02;2.78;;;1.25;;
44722;SDS011;30451;48.638;10.624;2023-04-24T11:40:29;2.58;;;1.10;;
44722;SDS011;30451;48.638;10.624;2023-04-24T11:42:55;4.00;;;1.20;;
44722;SDS011;30451;48.638;10.624;2023-04-24T11:45:28;3.90;;;1.40;;
44722;SDS011;30451;48.638;10.624;2023-04-24T11:47:55;3.03;;;1.20;;
44722;SDS011;30451;48.638;10.624;2023-04-24T11:50:21;4.10;;;1.45;;
44722;SDS011;30451;48.638;10.624;2023-04-24T11:52:49;2.92;;;1.30;;
44722;SDS011;30451;48.638;10.624;2023-04-24T11:57:50;2.75;;;1.30;;
44722;SDS011;30451;48.638;10.624;2023-04-24T12:00:19;4.03;;;1.45;;
44722;SDS011;30451;48.638;10.624;2023-04-24T12:02:47;3.35;;;1.58;;
44722;SDS011;30451;48.638;10.624;2023-04-24T12:05:20;3.00;;;1.50;;
44722;SDS011;30451;48.638;10.624;2023-04-24T12:07:49;2.83;;;1.30;;
44722;SDS011;30451;48.638;10.624;2023-04-24T12:10:19;2.08;;;1.25;;
44722;SDS011;30451;48.638;10.624;2023-04-24T12:12:53;2.83;;;1.30;;
44722;SDS011;30451;48.638;10.624;2023-04-24T12:15:20;2.95;;;1.25;;
44722;SDS011;30451;48.638;10.624;2023-04-24T12:17:46;2.80;;;1.38;;
44722;SDS011;30451;48.638;10.624;2023-04-24T12:20:13;3.10;;;1.50;;
44722;SDS011;30451;48.638;10.624;2023-04-24T12:25:15;2.95;;;1.45;;
44722;SDS011;30451;48.638;10.624;2023-04-24T12:27:46;4.15;;;1.30;;
44722;SDS011;30451;48.638;10.624;2023-04-24T12:30:17;3.45;;;1.50;;
44722;SDS011;30451;48.638;10.624;2023-04-24T12:32:44;2.67;;;1.30;;
44722;SDS011;30451;48.638;10.624;2023-04-24T12:35:18;2.33;;;1.30;;
44722;SDS011;30451;48.638;10.624;2023-04-24T12:37:45;3.65;;;1.35;;
44722;SDS011;30451;48.638;10.624;2023-04-24T12:40:12;2.88;;;1.20;;
44722;SDS011;30451;48.638;10.624;2023-04-24T12:42:42;3.88;;;1.25;;
44722;SDS011;30451;48.638;10.624;2023-04-24T12:45:09;3.10;;;1.42;;
44722;SDS011;30451;48.638;10.624;2023-04-24T12:47:37;3.10;;;1.35;;
44722;SDS011;30451;48.638;10.624;2023-04-24T12:50:03;2.60;;;1.20;;
44722;SDS011;30451;48.638;10.624;2023-04-24T12:52:29;2.88;;;1.30;;
44722;SDS011;30451;48.638;10.624;2023-04-24T12:54:57;3.13;;;1.50;;
44722;SDS011;30451;48.638;10.624;2023-04-24T12:57:24;2.90;;;1.40;;
44722;SDS011;30451;48.638;10.624;2023-04-24T12:59:50;4.95;;;1.40;;
44722;SDS011;30451;48.638;10.624;2023-04-24T13:02:18;3.55;;;1.60;;
44722;SDS011;30451;48.638;10.624;2023-04-24T13:04:44;2.40;;;1.30;;
44722;SDS011;30451;48.638;10.624;2023-04-24T13:07:11;2.08;;;1.20;;
44722;SDS011;30451;48.638;10.624;2023-04-24T13:09:38;2.17;;;1.10;;
44722;SDS011;30451;48.638;10.624;2023-04-24T13:12:04;2.15;;;1.10;;
44722;SDS011;30451;48.638;10.624;2023-04-24T13:14:33;2.23;;;1.10;;
44722;SDS011;30451;48.638;10.624;2023-04-24T13:16:58;3.15;;;1.10;;
44722;SDS011;30451;48.638;10.624;2023-04-24T13:19:25;2.72;;;1.33;;
44722;SDS011;30451;48.638;10.624;2023-04-24T13:21:51;3.17;;;1.40;;
44722;SDS011;30451;48.638;10.624;2023-04-24T13:24:17;2.60;;;1.05;;
44722;SDS011;30451;48.638;10.624;2023-04-24T13:26:43;2.75;;;1.30;;
44722;SDS011;30451;48.638;10.624;2023-04-24T13:29:09;3.47;;;1.60;;
44722;SDS011;30451;48.638;10.624;2023-04-24T13:31:35;2.30;;;1.20;;
44722;SDS011;30451;48.638;10.624;2023-04-24T13:34:01;1.83;;;1.00;;
44722;SDS011;30451;48.638;10.624;2023-04-24T13:36:27;2.38;;;1.10;;
44722;SDS011;30451;48.638;10.624;2023-04-24T13:38:53;2.63;;;1.20;;
44722;SDS011;30451;48.638;10.624;2023-04-24T13:41:18;3.47;;;1.20;;
44722;SDS011;30451;48.638;10.624;2023-04-24T13:43:44;2.45;;;1.10;;
44722;SDS011;30451;48.638;10.624;2023-04-24T13:46:10;2.38;;;1.35;;
44722;SDS011;30451;48.638;10.624;2023-04-24T13:48:35;4.15;;;1.10;;
44722;SDS011;30451;48.638;10.624;2023-04-24T13:51:01;3.22;;;1.30;;
44722;SDS011;30451;48.638;10.624;2023-04-24T13:53:27;2.83;;;1.30;;
44722;SDS011;30451;48.638;10.624;2023-04-24T13:55:52;2.72;;;1.13;;
44722;SDS011;30451;48.638;10.624;2023-04-24T13:58:18;2.03;;;1.13;;
44722;SDS011;30451;48.638;10.624;2023-04-24T14:00:44;2.35;;;1.23;;
44722;SDS011;30451;48.638;10.624;2023-04-24T14:03:09;2.38;;;1.20;;
44722;SDS011;30451;48.638;10.624;2023-04-24T14:05:35;2.08;;;1.10;;
44722;SDS011;30451;48.638;10.624;2023-04-24T14:08:01;2.25;;;0.95;;
44722;SDS011;30451;48.638;10.624;2023-04-24T14:10:27;2.05;;;1.00;;
44722;SDS011;30451;48.638;10.624;2023-04-24T14:12:53;2.47;;;1.20;;
44722;SDS011;30451;48.638;10.624;2023-04-24T14:15:19;2.00;;;1.10;;
44722;SDS011;30451;48.638;10.624;2023-04-24T14:17:44;1.75;;;1.02;;
44722;SDS011;30451;48.638;10.624;2023-04-24T14:20:11;2.88;;;1.30;;
44722;SDS011;30451;48.638;10.624;2023-04-24T14:22:37;2.13;;;1.08;;
44722;SDS011;30451;48.638;10.624;2023-04-24T14:25:03;1.98;;;1.02;;
44722;SDS011;30451;48.638;10.624;2023-04-24T14:27:30;2.38;;;1.10;;
44722;SDS011;30451;48.638;10.624;2023-04-24T14:29:56;2.03;;;1.00;;
44722;SDS011;30451;48.638;10.624;2023-04-24T14:32:22;2.10;;;1.10;;
44722;SDS011;30451;48.638;10.624;2023-04-24T14:34:48;2.20;;;1.15;;
44722;SDS011;30451;48.638;10.624;2023-04-24T14:37:13;2.70;;;1.00;;
44722;SDS011;30451;48.638;10.624;2023-04-24T14:39:39;2.50;;;1.10;;
44722;SDS011;30451;48.638;10.624;2023-04-24T14:42:05;4.63;;;1.10;;